createdAt,value
2023-04-12T00:01:40.404Z,42.17
2023-04-12T00:04:08.692Z,41.89
2023-04-12T00:06:36.313Z,42.23
2023-04-12T00:09:04.417Z,41.96
2023-04-12T00:11:32.042Z,42.37
2023-04-12T00:14:00.046Z,42.46
2023-04-12T00:16:28.170Z,42.39
2023-04-12T00:18:57.424Z,42.41
2023-04-12T00:21:28.654Z,42.23
2023-04-12T00:23:57.079Z,42.39
2023-04-12T00:26:25.612Z,42.60
2023-04-12T00:28:56.155Z,42.35
2023-04-12T00:31:24.012Z,42.23
2023-04-12T00:33:51.880Z,42.39
2023-04-12T00:36:19.490Z,42.91
2023-04-12T00:38:47.437Z,42.70
2023-04-12T00:41:15.445Z,43.01
2023-04-12T00:43:42.909Z,43.45
2023-04-12T00:46:09.860Z,43.83
2023-04-12T00:48:37.931Z,44.11
2023-04-12T00:51:07.059Z,44.05
2023-04-12T00:53:34.544Z,44.71
2023-04-12T00:56:03.690Z,45.13
2023-04-12T00:58:31.922Z,44.99
2023-04-12T01:01:00.396Z,44.93
2023-04-12T01:03:27.945Z,45.37
2023-04-12T01:06:22.833Z,45.29
2023-04-12T01:09:24.098Z,45.39
2023-04-12T01:12:09.161Z,45.89
2023-04-12T01:14:46.186Z,46.15
2023-04-12T01:17:14.651Z,46.27
2023-04-12T01:19:57.990Z,45.89
2023-04-12T01:22:38.802Z,46.24
2023-04-12T01:25:16.318Z,46.30
2023-04-12T01:27:47.913Z,46.30
2023-04-12T01:30:17.016Z,46.39
2023-04-12T01:32:45.371Z,47.10
2023-04-12T01:35:12.184Z,47.13
2023-04-12T01:37:40.396Z,47.10
2023-04-12T01:40:10.733Z,47.09
2023-04-12T01:42:38.451Z,47.49
2023-04-12T01:45:09.559Z,47.31
2023-04-12T01:47:37.234Z,47.56
2023-04-12T01:50:25.942Z,47.19
2023-04-12T01:53:16.862Z,47.49
2023-04-12T01:55:45.990Z,48.00
2023-04-12T01:58:12.825Z,47.85
2023-04-12T02:00:39.917Z,47.91
2023-04-12T02:03:07.566Z,48.32
2023-04-12T02:05:34.886Z,48.31
2023-04-12T02:08:04.249Z,48.49
2023-04-12T02:10:31.932Z,48.36
2023-04-12T02:13:02.511Z,48.52
2023-04-12T02:15:29.656Z,47.86
2023-04-12T02:17:59.736Z,48.07
2023-04-12T02:20:28.189Z,47.65
2023-04-12T02:22:55.884Z,48.04
2023-04-12T02:25:24.062Z,47.54
2023-04-12T02:27:52.083Z,47.75
2023-04-12T02:30:21.366Z,47.73
2023-04-12T02:32:48.677Z,47.86
2023-04-12T02:35:20.280Z,47.98
2023-04-12T02:37:48.719Z,47.84
2023-04-12T02:40:16.575Z,47.49
2023-04-12T02:42:44.596Z,47.37
2023-04-12T02:45:12.664Z,47.06
2023-04-12T02:47:41.295Z,47.36
2023-04-12T02:50:10.097Z,47.59
2023-04-12T02:52:38.412Z,47.09
2023-04-12T02:55:08.649Z,46.87
2023-04-12T02:57:37.076Z,47.45
2023-04-12T03:00:12.386Z,47.48
2023-04-12T03:02:40.277Z,47.71
2023-04-12T03:05:10.248Z,47.38
2023-04-12T03:07:38.327Z,48.03
2023-04-12T03:10:09.388Z,48.24
2023-04-12T03:12:37.404Z,48.15
2023-04-12T03:15:06.031Z,48.00
2023-04-12T03:17:33.971Z,48.07
2023-04-12T03:20:08.040Z,48.32
2023-04-12T03:22:39.621Z,48.72
2023-04-12T03:25:10.099Z,49.51
2023-04-12T03:27:37.566Z,49.64
2023-04-12T03:30:07.891Z,50.16
2023-04-12T03:32:35.717Z,50.39
2023-04-12T03:35:03.306Z,51.27
2023-04-12T03:37:31.876Z,51.43
2023-04-12T03:40:00.233Z,51.24
2023-04-12T03:42:33.643Z,51.50
2023-04-12T03:45:02.090Z,51.79
2023-04-12T03:47:30.071Z,51.65
2023-04-12T03:50:10.869Z,51.75
2023-04-12T03:52:39.997Z,51.62
2023-04-12T03:55:07.879Z,51.49
2023-04-12T03:57:35.976Z,51.73
2023-04-12T04:00:04.820Z,51.89
2023-04-12T04:02:32.535Z,51.96
2023-04-12T04:05:00.881Z,52.24
2023-04-12T04:07:28.956Z,52.64
2023-04-12T04:09:56.783Z,52.60
2023-04-12T04:12:24.427Z,52.54
2023-04-12T04:14:52.685Z,52.89
2023-04-12T04:17:20.724Z,52.89
2023-04-12T04:19:48.667Z,53.29
2023-04-12T04:22:17.899Z,53.20
2023-04-12T04:24:46.067Z,53.00
2023-04-12T04:27:15.685Z,53.10
2023-04-12T04:29:46.769Z,52.90
2023-04-12T04:32:17.610Z,52.78
2023-04-12T04:34:45.242Z,52.90
2023-04-12T04:37:13.378Z,52.90
2023-04-12T04:39:41.467Z,53.06
2023-04-12T04:42:09.779Z,53.04
2023-04-12T04:44:37.906Z,52.61
2023-04-12T04:47:07.036Z,52.48
2023-04-12T04:49:35.342Z,52.25
2023-04-12T04:52:03.097Z,52.27
2023-04-12T04:54:33.174Z,52.08
2023-04-12T04:57:01.742Z,51.80
2023-04-12T04:59:33.728Z,52.17
2023-04-12T05:02:01.469Z,52.01
2023-04-12T05:04:29.129Z,51.88
2023-04-12T05:06:57.382Z,52.12
2023-04-12T05:09:25.500Z,51.77
2023-04-12T05:11:53.700Z,51.74
2023-04-12T05:14:23.324Z,51.71
2023-04-12T05:16:52.273Z,51.51
2023-04-12T05:19:20.209Z,51.58
2023-04-12T05:21:48.164Z,51.36
2023-04-12T05:24:16.061Z,51.33
2023-04-12T05:26:44.155Z,51.22
2023-04-12T05:29:12.505Z,50.80
2023-04-12T05:31:39.990Z,50.59
2023-04-12T05:34:08.063Z,50.86
2023-04-12T05:36:36.392Z,50.75
2023-04-12T05:39:04.090Z,50.56
2023-04-12T05:41:31.890Z,50.47
2023-04-12T05:43:59.615Z,50.81
2023-04-12T05:46:27.989Z,50.86
2023-04-12T05:48:57.105Z,50.92
2023-04-12T05:51:37.820Z,50.95
2023-04-12T05:54:09.254Z,50.79
2023-04-12T05:56:37.076Z,50.99
2023-04-12T05:59:05.291Z,50.60
2023-04-12T06:01:34.317Z,50.29
2023-04-12T06:04:06.083Z,50.85
2023-04-12T06:06:33.748Z,50.95
2023-04-12T06:09:10.591Z,50.94
2023-04-12T06:11:39.320Z,50.33
2023-04-12T06:14:11.665Z,50.05
2023-04-12T06:16:41.957Z,49.63
2023-04-12T06:19:11.244Z,49.43
2023-04-12T06:21:38.728Z,49.02
2023-04-12T06:24:08.872Z,48.78
2023-04-12T06:26:39.629Z,48.53
2023-04-12T06:29:08.070Z,48.13
2023-04-12T06:31:35.437Z,47.94
2023-04-12T06:34:04.627Z,47.76
2023-04-12T06:36:32.654Z,47.56
2023-04-12T06:39:00.693Z,47.08
2023-04-12T06:41:28.873Z,47.36
2023-04-12T06:43:56.968Z,47.55
2023-04-12T06:46:28.582Z,46.89
2023-04-12T06:48:56.723Z,46.10
2023-04-12T06:51:24.520Z,46.54
2023-04-12T06:53:52.533Z,46.27
2023-04-12T06:56:20.406Z,45.84
2023-04-12T06:58:48.319Z,45.89
2023-04-12T07:01:16.306Z,45.66
2023-04-12T07:03:44.206Z,45.73
2023-04-12T07:06:24.214Z,45.33
2023-04-12T07:08:53.698Z,45.58
2023-04-12T07:11:25.343Z,45.27
2023-04-12T07:13:53.057Z,45.55
2023-04-12T07:16:20.906Z,45.33
2023-04-12T07:18:49.615Z,45.10
2023-04-12T07:21:18.030Z,45.33
2023-04-12T07:23:46.904Z,45.40
2023-04-12T07:26:15.182Z,45.64
2023-04-12T07:28:42.976Z,45.05
2023-04-12T07:31:11.123Z,45.08
2023-04-12T07:33:40.700Z,44.85
2023-04-12T07:36:12.404Z,45.02
2023-04-12T07:38:40.149Z,44.67
2023-04-12T07:41:08.317Z,45.03
2023-04-12T07:43:36.054Z,44.54
2023-04-12T07:46:08.001Z,44.63
2023-04-12T07:48:36.250Z,44.33
2023-04-12T07:51:05.175Z,43.65
2023-04-12T07:53:33.947Z,43.53
2023-04-12T07:56:04.479Z,43.12
2023-04-12T07:58:32.527Z,42.82
2023-04-12T08:01:01.442Z,42.13
2023-04-12T08:03:29.301Z,42.10
2023-04-12T08:05:57.103Z,40.56
2023-04-12T08:08:27.490Z,39.82
2023-04-12T08:10:58.860Z,39.44
2023-04-12T08:13:27.349Z,38.17
2023-04-12T08:15:54.965Z,37.97
2023-04-12T08:18:23.071Z,38.16
2023-04-12T08:20:51.466Z,38.19
2023-04-12T08:23:19.494Z,38.42
2023-04-12T08:25:47.193Z,38.18
2023-04-12T08:28:14.920Z,37.70
2023-04-12T08:30:43.384Z,36.81
2023-04-12T08:33:10.919Z,36.60
2023-04-12T08:35:40.078Z,37.00
2023-04-12T08:38:11.931Z,36.02
2023-04-12T08:40:41.364Z,35.40
2023-04-12T08:43:12.227Z,34.85
2023-04-12T08:45:40.459Z,34.81
2023-04-12T08:48:11.682Z,34.15
2023-04-12T08:50:39.726Z,34.50
2023-04-12T08:53:07.503Z,34.10
2023-04-12T08:55:39.794Z,33.59
2023-04-12T08:58:08.079Z,33.65
2023-04-12T09:00:35.582Z,33.35
2023-04-12T09:03:03.799Z,33.04
2023-04-12T09:05:32.227Z,33.22
2023-04-12T09:08:02.341Z,33.73
2023-04-12T09:10:36.913Z,33.04
2023-04-12T09:13:06.042Z,33.14
2023-04-12T09:15:34.956Z,32.99
2023-04-12T09:18:06.871Z,32.82
2023-04-12T09:20:35.138Z,32.44
2023-04-12T09:23:14.094Z,32.70
2023-04-12T09:25:45.330Z,33.25
2023-04-12T09:28:27.769Z,32.47
2023-04-12T09:30:55.779Z,32.67
2023-04-12T09:33:40.582Z,32.04
2023-04-12T09:36:17.460Z,32.09
2023-04-12T09:39:05.258Z,31.45
2023-04-12T09:41:33.129Z,31.25
2023-04-12T09:44:01.183Z,30.71
2023-04-12T09:46:28.623Z,31.01
2023-04-12T09:48:59.670Z,31.28
2023-04-12T09:51:53.985Z,31.01
2023-04-12T09:54:22.102Z,31.03
2023-04-12T09:56:50.073Z,30.74
2023-04-12T09:59:18.021Z,30.97
2023-04-12T10:01:45.152Z,30.83
2023-04-12T10:04:12.945Z,29.89
2023-04-12T10:06:41.794Z,30.31
2023-04-12T10:09:09.210Z,30.20
2023-04-12T10:11:37.727Z,30.58
2023-04-12T10:14:05.681Z,30.11
2023-04-12T10:16:34.811Z,30.51
2023-04-12T10:19:03.068Z,30.35
2023-04-12T10:21:34.151Z,30.03
2023-04-12T10:24:02.450Z,29.87
2023-04-12T10:26:30.371Z,29.85
2023-04-12T10:29:26.023Z,29.33
2023-04-12T10:32:26.764Z,29.06
2023-04-12T10:34:58.581Z,29.56
2023-04-12T10:38:13.290Z,29.41
2023-04-12T10:40:41.894Z,29.58
2023-04-12T10:43:26.687Z,29.41
2023-04-12T10:45:54.155Z,29.59
2023-04-12T10:48:32.782Z,28.83
2023-04-12T10:51:18.017Z,29.55
2023-04-12T10:53:46.963Z,29.29
2023-04-12T10:56:32.853Z,29.53
2023-04-12T10:59:04.341Z,29.40
2023-04-12T11:01:31.677Z,28.69
2023-04-12T11:04:25.783Z,28.68
2023-04-12T11:06:53.820Z,28.86
2023-04-12T11:09:42.701Z,29.12
2023-04-12T11:12:15.181Z,28.93
2023-04-12T11:14:51.894Z,29.61
2023-04-12T11:17:18.651Z,29.77
2023-04-12T11:19:49.957Z,29.45
2023-04-12T11:22:18.051Z,29.48
2023-04-12T11:24:46.634Z,30.41
2023-04-12T11:27:13.785Z,29.19
2023-04-12T11:29:41.473Z,29.33
2023-04-12T11:32:14.652Z,29.71
2023-04-12T11:34:43.541Z,29.71
2023-04-12T11:37:11.277Z,29.25
2023-04-12T11:39:49.703Z,28.94
2023-04-12T11:42:20.691Z,28.93
2023-04-12T11:44:57.098Z,29.28
2023-04-12T11:47:27.094Z,29.76
2023-04-12T11:49:58.970Z,29.30
2023-04-12T11:52:33.942Z,29.69
2023-04-12T11:55:05.246Z,29.33
2023-04-12T11:57:32.801Z,28.83
2023-04-12T12:00:00.879Z,30.18
2023-04-12T12:02:41.082Z,30.60
2023-04-12T12:05:14.843Z,30.48
2023-04-12T12:07:42.604Z,30.09
2023-04-12T12:10:14.612Z,30.44
2023-04-12T12:12:48.512Z,30.19
2023-04-12T12:15:21.621Z,29.56
2023-04-12T12:17:52.644Z,30.00
2023-04-12T12:20:21.489Z,30.61
2023-04-12T12:22:49.654Z,28.76
2023-04-12T12:25:20.843Z,29.54
2023-04-12T12:27:50.452Z,30.18
2023-04-12T12:30:18.218Z,30.85
2023-04-12T12:32:46.182Z,30.89
2023-04-12T12:35:14.121Z,30.86
2023-04-12T12:37:52.488Z,29.73
2023-04-12T12:40:26.425Z,30.32
2023-04-12T12:42:55.562Z,30.32
2023-04-12T12:45:24.394Z,30.52
2023-04-12T12:48:02.928Z,30.11
2023-04-12T12:50:34.808Z,30.09
2023-04-12T12:53:02.326Z,30.46
2023-04-12T12:55:30.658Z,30.71
2023-04-12T12:58:06.609Z,30.35
2023-04-12T13:00:35.890Z,31.43
2023-04-12T13:03:04.267Z,31.89
2023-04-12T13:05:32.631Z,31.91
2023-04-12T13:08:00.531Z,32.22
2023-04-12T13:10:31.345Z,32.15
2023-04-12T13:12:59.030Z,31.88
2023-04-12T13:15:27.092Z,32.32
2023-04-12T13:17:54.514Z,32.75
2023-04-12T13:20:23.195Z,32.90
2023-04-12T13:22:51.619Z,32.57
2023-04-12T13:25:22.617Z,32.16
2023-04-12T13:27:50.686Z,32.82
2023-04-12T13:30:22.008Z,32.74
2023-04-12T13:32:49.746Z,32.54
2023-04-12T13:35:17.782Z,32.88
2023-04-12T13:37:45.318Z,33.02
2023-04-12T13:40:13.564Z,32.54
2023-04-12T13:42:41.531Z,32.75
2023-04-12T13:45:12.263Z,32.83
2023-04-12T13:47:39.448Z,32.79
2023-04-12T13:50:10.156Z,32.77
2023-04-12T13:52:38.506Z,33.07
2023-04-12T13:55:08.526Z,33.20
2023-04-12T13:57:36.596Z,33.35
2023-04-12T14:00:05.122Z,33.43
2023-04-12T14:02:33.639Z,33.97
2023-04-12T14:05:01.858Z,33.65
2023-04-12T14:07:29.649Z,33.85
2023-04-12T14:10:00.306Z,34.06
2023-04-12T14:12:28.345Z,34.33
2023-04-12T14:14:55.907Z,33.67
2023-04-12T14:17:23.673Z,33.66
2023-04-12T14:19:51.255Z,34.30
2023-04-12T14:22:18.896Z,34.27
2023-04-12T14:24:46.689Z,34.04
2023-04-12T14:27:15.374Z,34.08
2023-04-12T14:29:45.425Z,34.26
2023-04-12T14:32:13.078Z,34.31
2023-04-12T14:34:42.970Z,34.54
2023-04-12T14:37:13.986Z,35.07
2023-04-12T14:39:41.843Z,34.69
2023-04-12T14:42:09.788Z,34.39
2023-04-12T14:44:37.546Z,34.59
2023-04-12T14:47:05.729Z,34.60
2023-04-12T14:49:34.037Z,34.40
2023-04-12T14:52:02.168Z,34.29
2023-04-12T14:54:30.424Z,34.83
2023-04-12T14:56:58.348Z,34.63
2023-04-12T14:59:27.588Z,34.44
2023-04-12T15:01:55.453Z,34.39
2023-04-12T15:04:23.436Z,34.39
2023-04-12T15:06:51.624Z,34.45
2023-04-12T15:09:19.738Z,34.44
2023-04-12T15:11:49.563Z,34.86
2023-04-12T15:14:20.735Z,34.80
2023-04-12T15:16:52.193Z,34.58
2023-04-12T15:19:23.063Z,34.57
2023-04-12T15:21:57.595Z,34.41
2023-04-12T15:24:25.899Z,34.73
2023-04-12T15:26:53.564Z,34.74
2023-04-12T15:29:22.853Z,34.91
2023-04-12T15:31:50.861Z,35.35
2023-04-12T15:34:18.574Z,35.40
2023-04-12T15:36:46.364Z,35.69
2023-04-12T15:39:15.225Z,36.10
2023-04-12T15:41:43.507Z,36.26
2023-04-12T15:44:14.487Z,36.70
2023-04-12T15:46:43.487Z,36.80
2023-04-12T15:49:11.186Z,36.99
2023-04-12T15:51:38.941Z,37.13
2023-04-12T15:54:07.127Z,37.12
2023-04-12T15:56:35.603Z,37.42
2023-04-12T15:59:03.265Z,37.74
2023-04-12T16:01:30.967Z,37.71
2023-04-12T16:03:58.774Z,37.54
2023-04-12T16:06:26.783Z,37.47
2023-04-12T16:08:54.817Z,37.52
2023-04-12T16:11:23.799Z,37.79
2023-04-12T16:13:53.148Z,38.24
2023-04-12T16:16:23.324Z,38.51
2023-04-12T16:18:52.851Z,38.13
2023-04-12T16:21:20.719Z,38.25
2023-04-12T16:23:49.064Z,38.59
2023-04-12T16:26:22.084Z,38.66
2023-04-12T16:29:14.098Z,39.13
2023-04-12T16:31:42.445Z,39.76
2023-04-12T16:34:11.230Z,40.04
2023-04-12T16:36:39.395Z,40.39
2023-04-12T16:39:07.388Z,40.78
2023-04-12T16:41:35.562Z,40.83
2023-04-12T16:44:03.468Z,41.37
2023-04-12T16:46:31.664Z,41.34
2023-04-12T16:48:59.614Z,41.89
2023-04-12T16:51:37.153Z,43.09
2023-04-12T16:54:05.845Z,43.79
2023-04-12T16:56:33.422Z,44.42
2023-04-12T16:59:01.221Z,44.59
2023-04-12T17:01:29.054Z,44.83
2023-04-12T17:03:58.288Z,43.76
2023-04-12T17:06:28.092Z,43.13
2023-04-12T17:08:56.487Z,42.99
2023-04-12T17:11:24.427Z,43.19
2023-04-12T17:13:52.717Z,43.05
2023-04-12T17:16:20.927Z,43.25
2023-04-12T17:18:49.056Z,42.64
2023-04-12T17:21:17.358Z,43.05
2023-04-12T17:23:45.332Z,43.26
2023-04-12T17:26:13.361Z,43.46
2023-04-12T17:28:41.674Z,43.94
2023-04-12T17:31:10.201Z,43.84
2023-04-12T17:33:37.806Z,43.90
2023-04-12T17:36:11.347Z,44.00
2023-04-12T17:38:39.580Z,44.09
2023-04-12T17:41:09.759Z,44.31
2023-04-12T17:43:37.841Z,44.80
2023-04-12T17:46:07.319Z,45.56
2023-04-12T17:48:35.135Z,45.88
2023-04-12T17:51:03.275Z,46.04
2023-04-12T17:53:31.143Z,46.50
2023-04-12T17:55:59.316Z,46.83
2023-04-12T17:58:27.863Z,46.59
2023-04-12T18:00:55.374Z,46.83
2023-04-12T18:03:23.372Z,46.74
2023-04-12T18:05:50.988Z,46.66
2023-04-12T18:08:19.135Z,46.82
2023-04-12T18:10:47.450Z,47.21
2023-04-12T18:13:15.591Z,47.28
2023-04-12T18:15:43.757Z,47.58
2023-04-12T18:18:11.565Z,47.94
2023-04-12T18:20:39.812Z,47.83
2023-04-12T18:23:07.954Z,48.07
2023-04-12T18:25:35.777Z,47.87
2023-04-12T18:28:03.741Z,48.29
2023-04-12T18:30:31.642Z,48.57
2023-04-12T18:33:00.998Z,48.10
2023-04-12T18:35:30.680Z,48.18
2023-04-12T18:37:58.805Z,48.20
2023-04-12T18:40:27.453Z,48.59
2023-04-12T18:42:55.553Z,48.44
2023-04-12T18:45:23.984Z,48.38
2023-04-12T18:47:52.978Z,47.86
2023-04-12T18:50:21.120Z,47.70
2023-04-12T18:52:49.344Z,47.62
2023-04-12T18:55:18.678Z,47.71
2023-04-12T18:57:47.720Z,47.36
2023-04-12T19:00:19.956Z,47.12
2023-04-12T19:02:48.654Z,47.21
2023-04-12T19:05:17.670Z,47.22
2023-04-12T19:07:45.474Z,47.11
2023-04-12T19:10:14.526Z,47.15
2023-04-12T19:12:46.191Z,47.33
2023-04-12T19:15:19.653Z,47.15
2023-04-12T19:17:51.177Z,47.27
2023-04-12T19:20:20.766Z,47.12
2023-04-12T19:22:54.791Z,47.10
2023-04-12T19:25:32.072Z,47.25
2023-04-12T19:28:09.359Z,47.52
2023-04-12T19:30:40.791Z,47.38
2023-04-12T19:33:18.094Z,47.49
2023-04-12T19:35:51.047Z,47.61
2023-04-12T19:38:28.810Z,46.99
2023-04-12T19:41:02.987Z,47.14
2023-04-12T19:43:33.452Z,47.30
2023-04-12T19:46:07.346Z,46.92
2023-04-12T19:48:37.720Z,47.14
2023-04-12T19:51:13.250Z,47.07
2023-04-12T19:53:46.310Z,46.86
2023-04-12T19:56:21.373Z,46.80
2023-04-12T19:58:53.798Z,46.75
2023-04-12T20:01:31.663Z,46.70
2023-04-12T20:04:19.782Z,46.80
2023-04-12T20:06:50.715Z,47.05
2023-04-12T20:09:28.273Z,47.03
2023-04-12T20:12:03.723Z,47.30
2023-04-12T20:14:37.527Z,46.88
2023-04-12T20:17:10.548Z,46.64
2023-04-12T20:19:44.902Z,46.40
2023-04-12T20:22:16.237Z,45.92
2023-04-12T20:24:51.874Z,45.86
2023-04-12T20:27:26.131Z,46.19
2023-04-12T20:30:00.360Z,46.09
2023-04-12T20:32:35.902Z,46.22
2023-04-12T20:35:12.040Z,46.75
2023-04-12T20:37:47.809Z,48.37
2023-04-12T20:40:19.409Z,49.03
2023-04-12T20:42:54.003Z,49.97
2023-04-12T20:45:31.624Z,50.44
2023-04-12T20:48:05.058Z,50.80
2023-04-12T20:50:42.652Z,51.71
2023-04-12T20:53:37.496Z,52.01
2023-04-12T20:56:17.962Z,52.51
2023-04-12T20:59:02.344Z,51.63
2023-04-12T21:01:35.585Z,51.15
2023-04-12T21:04:06.961Z,50.81
2023-04-12T21:06:40.695Z,51.26
2023-04-12T21:09:10.516Z,51.14
2023-04-12T21:11:41.984Z,50.85
2023-04-12T21:14:36.114Z,51.62
2023-04-12T21:17:07.629Z,51.42
2023-04-12T21:19:42.109Z,52.93
2023-04-12T21:22:10.266Z,54.67
2023-04-12T21:24:38.647Z,55.61
2023-04-12T21:27:11.077Z,56.44
2023-04-12T21:29:41.873Z,58.10
2023-04-12T21:32:12.074Z,58.75
2023-04-12T21:34:41.851Z,60.02
2023-04-12T21:37:10.559Z,61.67
2023-04-12T21:39:39.546Z,64.03
2023-04-12T21:42:08.150Z,65.82
2023-04-12T21:44:42.550Z,69.41
2023-04-12T21:47:09.999Z,71.94
2023-04-12T21:49:48.943Z,73.30
2023-04-12T21:52:25.146Z,74.66
2023-04-12T21:54:52.870Z,75.58
2023-04-12T21:57:20.963Z,76.57
2023-04-12T22:00:23.129Z,78.04
2023-04-12T22:02:51.556Z,78.40
2023-04-12T22:05:19.718Z,78.44
2023-04-12T22:07:48.451Z,78.87
2023-04-12T22:10:16.353Z,79.41
2023-04-12T22:12:51.597Z,79.02
2023-04-12T22:15:23.822Z,79.39
2023-04-12T22:17:51.633Z,79.53
2023-04-12T22:20:19.421Z,79.77
2023-04-12T22:22:47.579Z,80.17
2023-04-12T22:25:15.892Z,80.45
2023-04-12T22:27:46.507Z,79.90
2023-04-12T22:30:15.920Z,80.45
2023-04-12T22:32:43.865Z,80.90
2023-04-12T22:35:11.927Z,82.42
2023-04-12T22:37:41.378Z,83.16
2023-04-12T22:40:14.875Z,83.55
2023-04-12T22:42:49.107Z,83.71
2023-04-12T22:45:17.001Z,84.41
2023-04-12T22:47:49.711Z,84.53
2023-04-12T22:50:17.310Z,85.30
2023-04-12T22:52:45.314Z,85.37
2023-04-12T22:55:14.438Z,85.48
2023-04-12T22:57:50.997Z,86.36
2023-04-12T23:00:19.256Z,86.59
2023-04-12T23:02:47.864Z,86.40
2023-04-12T23:05:16.434Z,87.10
2023-04-12T23:07:44.159Z,86.70
2023-04-12T23:10:12.454Z,87.88
2023-04-12T23:12:40.101Z,87.00
2023-04-12T23:15:10.185Z,86.34
2023-04-12T23:18:08.011Z,85.02
2023-04-12T23:20:36.461Z,83.63
2023-04-12T23:23:04.130Z,83.24
2023-04-12T23:25:41.835Z,83.29
2023-04-12T23:28:14.291Z,82.85
2023-04-12T23:30:49.135Z,82.97
2023-04-12T23:33:18.333Z,83.88
2023-04-12T23:35:46.416Z,83.00
2023-04-12T23:38:15.813Z,83.16
2023-04-12T23:40:43.590Z,83.25
2023-04-12T23:43:14.827Z,83.19
2023-04-12T23:45:42.474Z,82.37
2023-04-12T23:48:10.098Z,82.68
2023-04-12T23:50:38.420Z,82.73
2023-04-12T23:53:05.997Z,83.04
2023-04-12T23:55:33.518Z,82.44
2023-04-12T23:58:01.373Z,82.43
